sensor_id;sensor_type;location;lat;lon;timestamp;pressure;altitude;pressure_sealevel;temperature;humidity
21730;BME280;11027;51.030;13.812;2023-05-12T00:01:46;100183.78;;;16.84;54.32
21730;BME280;11027;51.030;13.812;2023-05-12T00:04:11;100178.28;;;16.84;54.20
21730;BME280;11027;51.030;13.812;2023-05-12T00:06:37;100183.78;;;16.84;54.55
21730;BME280;11027;51.030;13.812;2023-05-12T00:09:02;100178.72;;;16.81;54.46
21730;BME280;11027;51.030;13.812;2023-05-12T00:11:27;100193.13;;;16.76;54.56
21730;BME280;11027;51.030;13.812;2023-05-12T00:13:53;100186.34;;;16.72;54.93
21730;BME280;11027;51.030;13.812;2023-05-12T00:16:19;100191.84;;;16.72;55.21
21730;BME280;11027;51.030;13.812;2023-05-12T00:18:44;100194.22;;;16.69;55.27
21730;BME280;11027;51.030;13.812;2023-05-12T00:21:10;100188.13;;;16.60;55.70
21730;BME280;11027;51.030;13.812;2023-05-12T00:23:36;100185.63;;;16.52;55.89
21730;BME280;11027;51.030;13.812;2023-05-12T00:26:01;100177.63;;;16.50;56.21
21730;BME280;11027;51.030;13.812;2023-05-12T00:28:27;100178.00;;;16.54;56.22
21730;BME280;11027;51.030;13.812;2023-05-12T00:30:52;100177.63;;;16.50;56.50
21730;BME280;11027;51.030;13.812;2023-05-12T00:33:17;100181.41;;;16.49;56.64
21730;BME280;11027;51.030;13.812;2023-05-12T00:35:43;100185.25;;;16.48;56.52
21730;BME280;11027;51.030;13.812;2023-05-12T00:38:10;100183.38;;;16.42;56.58
21730;BME280;11027;51.030;13.812;2023-05-12T00:40:35;100180.63;;;16.42;56.74
21730;BME280;11027;51.030;13.812;2023-05-12T00:43:01;100188.88;;;16.42;57.01
21730;BME280;11027;51.030;13.812;2023-05-12T00:45:26;100191.63;;;16.35;57.56
21730;BME280;11027;51.030;13.812;2023-05-12T00:47:53;100196.06;;;16.30;57.51
21730;BME280;11027;51.030;13.812;2023-05-12T00:50:19;100186.38;;;16.27;57.54
21730;BME280;11027;51.030;13.812;2023-05-12T00:52:45;100190.41;;;16.25;57.71
21730;BME280;11027;51.030;13.812;2023-05-12T00:55:11;100189.97;;;16.28;57.54
21730;BME280;11027;51.030;13.812;2023-05-12T00:57:37;100192.50;;;16.29;57.72
21730;BME280;11027;51.030;13.812;2023-05-12T01:00:02;100188.28;;;16.27;57.86
21730;BME280;11027;51.030;13.812;2023-05-12T01:02:29;100189.34;;;16.26;58.17
21730;BME280;11027;51.030;13.812;2023-05-12T01:04:54;100189.56;;;16.24;58.28
21730;BME280;11027;51.030;13.812;2023-05-12T01:07:22;100190.81;;;16.22;58.43
21730;BME280;11027;51.030;13.812;2023-05-12T01:09:55;100187.03;;;16.23;58.23
21730;BME280;11027;51.030;13.812;2023-05-12T01:12:22;100188.72;;;16.24;58.01
21730;BME280;11027;51.030;13.812;2023-05-12T01:14:48;100188.31;;;16.20;58.13
21730;BME280;11027;51.030;13.812;2023-05-12T01:17:18;100184.69;;;16.19;58.40
21730;BME280;11027;51.030;13.812;2023-05-12T01:19:49;100190.44;;;16.18;58.28
21730;BME280;11027;51.030;13.812;2023-05-12T01:22:16;100184.94;;;16.18;58.70
21730;BME280;11027;51.030;13.812;2023-05-12T01:24:54;100191.69;;;16.15;58.93
21730;BME280;11027;51.030;13.812;2023-05-12T01:27:21;100182.81;;;16.13;59.11
21730;BME280;11027;51.030;13.812;2023-05-12T01:29:48;100187.06;;;16.09;58.96
21730;BME280;11027;51.030;13.812;2023-05-12T01:32:14;100189.19;;;16.07;59.30
21730;BME280;11027;51.030;13.812;2023-05-12T01:34:41;100183.28;;;16.04;59.32
21730;BME280;11027;51.030;13.812;2023-05-12T01:37:08;100197.66;;;15.99;59.86
21730;BME280;11027;51.030;13.812;2023-05-12T01:39:34;100192.16;;;15.99;59.93
21730;BME280;11027;51.030;13.812;2023-05-12T01:41:59;100198.75;;;15.98;59.89
21730;BME280;11027;51.030;13.812;2023-05-12T01:44:25;100192.63;;;15.96;60.29
21730;BME280;11027;51.030;13.812;2023-05-12T01:46:50;100196.41;;;15.95;60.25
21730;BME280;11027;51.030;13.812;2023-05-12T01:49:15;100204.03;;;15.93;60.47
21730;BME280;11027;51.030;13.812;2023-05-12T01:51:40;100197.28;;;15.89;60.69
21730;BME280;11027;51.030;13.812;2023-05-12T01:54:06;100197.72;;;15.86;60.79
21730;BME280;11027;51.030;13.812;2023-05-12T01:56:31;100201.50;;;15.85;61.33
21730;BME280;11027;51.030;13.812;2023-05-12T01:58:56;100193.47;;;15.83;61.08
21730;BME280;11027;51.030;13.812;2023-05-12T02:01:21;100208.94;;;15.77;61.57
21730;BME280;11027;51.030;13.812;2023-05-12T02:03:49;100208.25;;;15.69;61.60
21730;BME280;11027;51.030;13.812;2023-05-12T02:06:15;100209.53;;;15.66;61.66
21730;BME280;11027;51.030;13.812;2023-05-12T02:08:41;100200.03;;;15.62;62.02
21730;BME280;11027;51.030;13.812;2023-05-12T02:11:07;100206.56;;;15.61;62.47
21730;BME280;11027;51.030;13.812;2023-05-12T02:13:33;100209.75;;;15.58;62.54
21730;BME280;11027;51.030;13.812;2023-05-12T02:15:58;100204.47;;;15.56;62.79
21730;BME280;11027;51.030;13.812;2023-05-12T02:18:24;100211.25;;;15.54;62.59
21730;BME280;11027;51.030;13.812;2023-05-12T02:20:49;100212.53;;;15.51;62.82
21730;BME280;11027;51.030;13.812;2023-05-12T02:23:14;100214.84;;;15.48;63.13
21730;BME280;11027;51.030;13.812;2023-05-12T02:25:39;100213.38;;;15.45;63.19
21730;BME280;11027;51.030;13.812;2023-05-12T02:28:05;100219.69;;;15.46;63.34
21730;BME280;11027;51.030;13.812;2023-05-12T02:30:34;100218.00;;;15.45;62.92
21730;BME280;11027;51.030;13.812;2023-05-12T02:33:00;100214.63;;;15.43;63.41
21730;BME280;11027;51.030;13.812;2023-05-12T02:35:25;100201.09;;;15.41;63.09
21730;BME280;11027;51.030;13.812;2023-05-12T02:37:50;100220.53;;;15.39;63.31
21730;BME280;11027;51.030;13.812;2023-05-12T02:40:15;100215.06;;;15.39;62.95
21730;BME280;11027;51.030;13.812;2023-05-12T02:42:41;100216.28;;;15.37;63.05
21730;BME280;11027;51.030;13.812;2023-05-12T02:45:08;100213.78;;;15.35;62.69
21730;BME280;11027;51.030;13.812;2023-05-12T02:47:34;100214.81;;;15.34;62.89
21730;BME280;11027;51.030;13.812;2023-05-12T02:50:00;100221.38;;;15.33;63.09
21730;BME280;11027;51.030;13.812;2023-05-12T02:52:25;100217.56;;;15.28;62.73
21730;BME280;11027;51.030;13.812;2023-05-12T02:54:51;100210.63;;;15.25;63.09
21730;BME280;11027;51.030;13.812;2023-05-12T02:57:16;100211.03;;;15.22;63.15
21730;BME280;11027;51.030;13.812;2023-05-12T02:59:41;100207.84;;;15.18;63.02
21730;BME280;11027;51.030;13.812;2023-05-12T03:02:06;100210.81;;;15.17;63.24
21730;BME280;11027;51.030;13.812;2023-05-12T03:04:32;100216.31;;;15.17;63.42
21730;BME280;11027;51.030;13.812;2023-05-12T03:06:57;100210.38;;;15.13;63.32
21730;BME280;11027;51.030;13.812;2023-05-12T03:09:23;100208.91;;;15.11;63.61
21730;BME280;11027;51.030;13.812;2023-05-12T03:11:48;100211.66;;;15.11;63.83
21730;BME280;11027;51.030;13.812;2023-05-12T03:14:13;100211.66;;;15.11;63.60
21730;BME280;11027;51.030;13.812;2023-05-12T03:16:38;100206.19;;;15.11;63.60
21730;BME280;11027;51.030;13.812;2023-05-12T03:19:04;100211.66;;;15.11;63.73
21730;BME280;11027;51.030;13.812;2023-05-12T03:21:29;100217.56;;;15.08;63.96
21730;BME280;11027;51.030;13.812;2023-05-12T03:23:54;100223.44;;;15.05;63.88
21730;BME280;11027;51.030;13.812;2023-05-12T03:26:21;100216.28;;;15.04;63.69
21730;BME280;11027;51.030;13.812;2023-05-12T03:28:46;100212.06;;;15.01;63.94
21730;BME280;11027;51.030;13.812;2023-05-12T03:31:12;100211.19;;;15.00;64.10
21730;BME280;11027;51.030;13.812;2023-05-12T03:33:37;100216.69;;;15.00;64.01
21730;BME280;11027;51.030;13.812;2023-05-12T03:36:02;100216.69;;;15.00;64.16
21730;BME280;11027;51.030;13.812;2023-05-12T03:38:28;100224.50;;;14.97;64.17
21730;BME280;11027;51.030;13.812;2023-05-12T03:41:02;100220.25;;;14.94;64.18
21730;BME280;11027;51.030;13.812;2023-05-12T03:43:28;100226.81;;;14.93;64.13
21730;BME280;11027;51.030;13.812;2023-05-12T03:45:53;100227.66;;;14.94;64.49
21730;BME280;11027;51.030;13.812;2023-05-12T03:48:18;100225.13;;;14.92;64.27
21730;BME280;11027;51.030;13.812;2023-05-12T03:50:43;100228.50;;;14.94;64.44
21730;BME280;11027;51.030;13.812;2023-05-12T03:53:09;100223.00;;;14.94;64.35
21730;BME280;11027;51.030;13.812;2023-05-12T03:55:34;100224.72;;;14.95;64.23
21730;BME280;11027;51.030;13.812;2023-05-12T03:57:59;100225.13;;;14.92;64.57
21730;BME280;11027;51.030;13.812;2023-05-12T04:00:25;100228.91;;;14.91;64.55
21730;BME280;11027;51.030;13.812;2023-05-12T04:02:50;100234.41;;;14.91;64.82
21730;BME280;11027;51.030;13.812;2023-05-12T04:05:15;100228.50;;;14.94;64.65
21730;BME280;11027;51.030;13.812;2023-05-12T04:07:40;100229.13;;;14.96;64.71
21730;BME280;11027;51.030;13.812;2023-05-12T04:10:06;100231.88;;;14.96;64.48
21730;BME280;11027;51.030;13.812;2023-05-12T04:12:32;100228.50;;;14.94;64.73
21730;BME280;11027;51.030;13.812;2023-05-12T04:14:57;100226.81;;;14.93;64.96
21730;BME280;11027;51.030;13.812;2023-05-12T04:17:22;100230.59;;;14.92;64.63
21730;BME280;11027;51.030;13.812;2023-05-12T04:19:48;100230.19;;;14.95;65.00
21730;BME280;11027;51.030;13.812;2023-05-12T04:22:13;100231.88;;;14.96;65.42
21730;BME280;11027;51.030;13.812;2023-05-12T04:24:38;100238.00;;;14.98;65.64
21730;BME280;11027;51.030;13.812;2023-05-12T04:27:04;100231.47;;;14.99;65.49
21730;BME280;11027;51.030;13.812;2023-05-12T04:29:30;100236.97;;;14.99;65.89
21730;BME280;11027;51.030;13.812;2023-05-12T04:31:55;100236.97;;;14.99;65.54
21730;BME280;11027;51.030;13.812;2023-05-12T04:34:20;100236.75;;;15.01;65.82
21730;BME280;11027;51.030;13.812;2023-05-12T04:36:45;100242.88;;;15.03;66.04
21730;BME280;11027;51.030;13.812;2023-05-12T04:39:11;100245.00;;;15.08;65.90
21730;BME280;11027;51.030;13.812;2023-05-12T04:41:36;100247.09;;;15.12;65.96
21730;BME280;11027;51.030;13.812;2023-05-12T04:44:02;100251.75;;;15.12;65.88
21730;BME280;11027;51.030;13.812;2023-05-12T04:46:27;100249.41;;;15.09;65.92
21730;BME280;11027;51.030;13.812;2023-05-12T04:48:52;100248.78;;;15.07;65.81
21730;BME280;11027;51.030;13.812;2023-05-12T04:51:17;100257.44;;;15.10;65.56
21730;BME280;11027;51.030;13.812;2023-05-12T04:53:43;100249.00;;;15.12;65.83
21730;BME280;11027;51.030;13.812;2023-05-12T04:56:08;100250.06;;;15.11;65.54
21730;BME280;11027;51.030;13.812;2023-05-12T04:58:33;100243.53;;;15.12;64.98
21730;BME280;11027;51.030;13.812;2023-05-12T05:00:58;100254.69;;;15.10;65.06
21730;BME280;11027;51.030;13.812;2023-05-12T05:03:24;100248.38;;;15.10;64.77
21730;BME280;11027;51.030;13.812;2023-05-12T05:05:49;100248.56;;;15.08;64.86
21730;BME280;11027;51.030;13.812;2023-05-12T05:08:14;100246.66;;;15.09;64.55
21730;BME280;11027;51.030;13.812;2023-05-12T05:10:40;100244.59;;;15.11;64.60
21730;BME280;11027;51.030;13.812;2023-05-12T05:13:05;100253.03;;;15.16;64.49
21730;BME280;11027;51.030;13.812;2023-05-12T05:15:31;100255.13;;;15.14;64.71
21730;BME280;11027;51.030;13.812;2023-05-12T05:17:56;100255.13;;;15.14;64.62
21730;BME280;11027;51.030;13.812;2023-05-12T05:20:21;100262.31;;;15.15;64.35
21730;BME280;11027;51.030;13.812;2023-05-12T05:22:47;100259.34;;;15.16;64.47
21730;BME280;11027;51.030;13.812;2023-05-12T05:25:12;100265.28;;;15.20;64.32
21730;BME280;11027;51.030;13.812;2023-05-12T05:27:38;100270.34;;;15.23;64.24
21730;BME280;11027;51.030;13.812;2023-05-12T05:30:05;100264.44;;;15.26;63.97
21730;BME280;11027;51.030;13.812;2023-05-12T05:32:34;100265.72;;;15.30;63.70
21730;BME280;11027;51.030;13.812;2023-05-12T05:34:59;100269.53;;;15.36;63.42
21730;BME280;11027;51.030;13.812;2023-05-12T05:37:25;100266.97;;;15.41;63.14
21730;BME280;11027;51.030;13.812;2023-05-12T05:39:50;100269.50;;;15.43;63.03
21730;BME280;11027;51.030;13.812;2023-05-12T05:42:15;100263.63;;;15.46;63.11
21730;BME280;11027;51.030;13.812;2023-05-12T05:44:40;100264.88;;;15.50;62.45
21730;BME280;11027;51.030;13.812;2023-05-12T05:47:07;100269.09;;;15.59;62.76
21730;BME280;11027;51.030;13.812;2023-05-12T05:49:32;100271.63;;;15.67;62.62
21730;BME280;11027;51.030;13.812;2023-05-12T05:51:57;100272.06;;;15.71;62.41
21730;BME280;11027;51.030;13.812;2023-05-12T05:54:23;100275.63;;;15.71;62.37
21730;BME280;11027;51.030;13.812;2023-05-12T05:56:49;100278.00;;;15.74;62.13
21730;BME280;11027;51.030;13.812;2023-05-12T05:59:15;100272.09;;;15.77;62.17
21730;BME280;11027;51.030;13.812;2023-05-12T06:01:40;100278.88;;;15.82;62.30
21730;BME280;11027;51.030;13.812;2023-05-12T06:04:05;100285.63;;;15.86;62.33
21730;BME280;11027;51.030;13.812;2023-05-12T06:06:31;100278.00;;;15.88;61.81
21730;BME280;11027;51.030;13.812;2023-05-12T06:08:56;100275.03;;;15.89;61.69
21730;BME280;11027;51.030;13.812;2023-05-12T06:11:22;100282.66;;;15.94;61.42
21730;BME280;11027;51.030;13.812;2023-05-12T06:13:47;100286.03;;;15.96;61.38
21730;BME280;11027;51.030;13.812;2023-05-12T06:16:12;100285.59;;;15.99;61.37
21730;BME280;11027;51.030;13.812;2023-05-12T06:18:38;100279.69;;;16.02;60.99
21730;BME280;11027;51.030;13.812;2023-05-12T06:21:04;100280.50;;;16.09;60.76
21730;BME280;11027;51.030;13.812;2023-05-12T06:23:29;100285.13;;;16.15;61.02
21730;BME280;11027;51.030;13.812;2023-05-12T06:25:55;100292.34;;;16.16;60.44
21730;BME280;11027;51.030;13.812;2023-05-12T06:28:20;100288.09;;;16.20;60.38
21730;BME280;11027;51.030;13.812;2023-05-12T06:30:45;100288.72;;;16.23;60.41
21730;BME280;11027;51.030;13.812;2023-05-12T06:33:11;100290.41;;;16.24;59.88
21730;BME280;11027;51.030;13.812;2023-05-12T06:35:36;100289.78;;;16.22;59.95
21730;BME280;11027;51.030;13.812;2023-05-12T06:38:02;100296.16;;;16.22;59.91
21730;BME280;11027;51.030;13.812;2023-05-12T06:40:27;100287.91;;;16.22;59.59
21730;BME280;11027;51.030;13.812;2023-05-12T06:42:52;100291.47;;;16.23;59.58
21730;BME280;11027;51.030;13.812;2023-05-12T06:45:18;100289.78;;;16.22;59.70
21730;BME280;11027;51.030;13.812;2023-05-12T06:47:43;100292.53;;;16.22;59.59
21730;BME280;11027;51.030;13.812;2023-05-12T06:50:08;100283.88;;;16.18;59.22
21730;BME280;11027;51.030;13.812;2023-05-12T06:52:34;100290.63;;;16.15;58.92
21730;BME280;11027;51.030;13.812;2023-05-12T06:54:59;100288.13;;;16.14;59.01
21730;BME280;11027;51.030;13.812;2023-05-12T06:57:25;100285.59;;;16.12;58.77
21730;BME280;11027;51.030;13.812;2023-05-12T06:59:50;100287.25;;;16.13;59.02
21730;BME280;11027;51.030;13.812;2023-05-12T07:02:15;100289.78;;;16.15;58.75
21730;BME280;11027;51.030;13.812;2023-05-12T07:04:41;100286.84;;;16.16;59.19
21730;BME280;11027;51.030;13.812;2023-05-12T07:07:06;100291.06;;;16.19;59.19
21730;BME280;11027;51.030;13.812;2023-05-12T07:09:31;100285.97;;;16.23;59.30
21730;BME280;11027;51.030;13.812;2023-05-12T07:11:57;100279.63;;;16.29;59.14
21730;BME280;11027;51.030;13.812;2023-05-12T07:14:23;100280.88;;;16.33;59.15
21730;BME280;11027;51.030;13.812;2023-05-12T07:16:48;100286.34;;;16.39;58.90
21730;BME280;11027;51.030;13.812;2023-05-12T07:19:14;100277.03;;;16.47;58.97
21730;BME280;11027;51.030;13.812;2023-05-12T07:21:39;100269.81;;;16.53;58.94
21730;BME280;11027;51.030;13.812;2023-05-12T07:24:05;100277.41;;;16.57;58.34
21730;BME280;11027;51.030;13.812;2023-05-12T07:26:30;100277.00;;;16.60;57.50
21730;BME280;11027;51.030;13.812;2023-05-12T07:28:56;100269.38;;;16.63;57.41
21730;BME280;11027;51.030;13.812;2023-05-12T07:31:21;100278.25;;;16.65;57.72
21730;BME280;11027;51.030;13.812;2023-05-12T07:33:46;100275.25;;;16.66;57.46
21730;BME280;11027;51.030;13.812;2023-05-12T07:36:11;100272.28;;;16.68;57.75
21730;BME280;11027;51.030;13.812;2023-05-12T07:38:37;100271.88;;;16.71;57.73
21730;BME280;11027;51.030;13.812;2023-05-12T07:41:02;100273.53;;;16.72;57.96
21730;BME280;11027;51.030;13.812;2023-05-12T07:43:28;100282.41;;;16.74;57.10
21730;BME280;11027;51.030;13.812;2023-05-12T07:45:53;100275.88;;;16.75;56.11
21730;BME280;11027;51.030;13.812;2023-05-12T07:48:20;100283.66;;;16.78;56.01
21730;BME280;11027;51.030;13.812;2023-05-12T07:50:45;100276.91;;;16.80;55.07
21730;BME280;11027;51.030;13.812;2023-05-12T07:53:10;100274.81;;;16.83;54.74
21730;BME280;11027;51.030;13.812;2023-05-12T07:55:36;100280.06;;;16.84;54.22
21730;BME280;11027;51.030;13.812;2023-05-12T07:58:01;100282.41;;;16.87;53.76
21730;BME280;11027;51.030;13.812;2023-05-12T08:00:27;100278.56;;;16.88;52.96
21730;BME280;11027;51.030;13.812;2023-05-12T08:02:52;100279.81;;;16.92;52.47
21730;BME280;11027;51.030;13.812;2023-05-12T08:05:18;100284.06;;;16.95;52.82
21730;BME280;11027;51.030;13.812;2023-05-12T08:07:43;100277.25;;;16.97;52.89
21730;BME280;11027;51.030;13.812;2023-05-12T08:10:10;100276.38;;;17.04;52.67
21730;BME280;11027;51.030;13.812;2023-05-12T08:12:37;100272.75;;;17.10;52.71
21730;BME280;11027;51.030;13.812;2023-05-12T08:15:03;100268.69;;;17.19;52.50
21730;BME280;11027;51.030;13.812;2023-05-12T08:17:29;100272.16;;;17.33;52.96
21730;BME280;11027;51.030;13.812;2023-05-12T08:19:54;100276.91;;;17.51;53.04
21730;BME280;11027;51.030;13.812;2023-05-12T08:22:19;100275.06;;;17.70;52.70
21730;BME280;11027;51.030;13.812;2023-05-12T08:24:45;100279.63;;;17.83;51.79
21730;BME280;11027;51.030;13.812;2023-05-12T08:27:10;100282.91;;;17.98;51.63
21730;BME280;11027;51.030;13.812;2023-05-12T08:29:35;100266.38;;;18.16;51.87
21730;BME280;11027;51.030;13.812;2023-05-12T08:32:01;100278.78;;;18.26;51.61
21730;BME280;11027;51.030;13.812;2023-05-12T08:34:26;100281.09;;;18.29;51.31
21730;BME280;11027;51.030;13.812;2023-05-12T08:36:52;100280.03;;;18.30;51.82
21730;BME280;11027;51.030;13.812;2023-05-12T08:39:18;100277.72;;;18.27;52.14
21730;BME280;11027;51.030;13.812;2023-05-12T08:44:14;100276.50;;;18.23;51.26
21730;BME280;11027;51.030;13.812;2023-05-12T08:46:41;100277.72;;;18.27;51.13
21730;BME280;11027;51.030;13.812;2023-05-12T08:49:09;100275.28;;;18.37;50.67
21730;BME280;11027;51.030;13.812;2023-05-12T08:51:39;100282.56;;;18.50;50.50
21730;BME280;11027;51.030;13.812;2023-05-12T08:54:07;100286.00;;;18.64;49.80
21730;BME280;11027;51.030;13.812;2023-05-12T08:56:34;100279.88;;;18.80;49.60
21730;BME280;11027;51.030;13.812;2023-05-12T08:59:01;100275.41;;;18.97;49.21
21730;BME280;11027;51.030;13.812;2023-05-12T09:01:27;100278.13;;;19.16;47.80
21730;BME280;11027;51.030;13.812;2023-05-12T09:03:53;100280.81;;;19.34;47.38
21730;BME280;11027;51.030;13.812;2023-05-12T09:06:19;100287.81;;;19.49;46.99
21730;BME280;11027;51.030;13.812;2023-05-12T09:08:44;100279.34;;;19.62;46.75
21730;BME280;11027;51.030;13.812;2023-05-12T09:11:10;100275.78;;;19.73;46.89
21730;BME280;11027;51.030;13.812;2023-05-12T09:14:05;100282.16;;;19.86;46.79
21730;BME280;11027;51.030;13.812;2023-05-12T09:16:36;100274.72;;;19.98;46.60
21730;BME280;11027;51.030;13.812;2023-05-12T09:19:03;100278.31;;;20.10;45.73
21730;BME280;11027;51.030;13.812;2023-05-12T09:21:28;100274.69;;;20.22;45.21
21730;BME280;11027;51.030;13.812;2023-05-12T09:24:05;100276.16;;;20.36;44.57
21730;BME280;11027;51.030;13.812;2023-05-12T09:26:52;100277.66;;;20.55;44.11
21730;BME280;11027;51.030;13.812;2023-05-12T09:29:18;100278.72;;;20.66;43.41
21730;BME280;11027;51.030;13.812;2023-05-12T09:31:50;100275.34;;;20.76;42.85
21730;BME280;11027;51.030;13.812;2023-05-12T09:34:16;100270.00;;;20.86;42.89
21730;BME280;11027;51.030;13.812;2023-05-12T09:36:42;100269.72;;;21.00;42.76
21730;BME280;11027;51.030;13.812;2023-05-12T09:39:09;100268.56;;;21.12;42.95
21730;BME280;11027;51.030;13.812;2023-05-12T09:41:38;100269.28;;;21.20;42.69
21730;BME280;11027;51.030;13.812;2023-05-12T09:44:05;100270.94;;;21.21;42.25
21730;BME280;11027;51.030;13.812;2023-05-12T09:46:31;100267.94;;;21.22;42.44
21730;BME280;11027;51.030;13.812;2023-05-12T09:48:57;100269.75;;;21.16;42.18
21730;BME280;11027;51.030;13.812;2023-05-12T09:51:23;100272.22;;;21.13;42.29
21730;BME280;11027;51.030;13.812;2023-05-12T09:53:49;100274.38;;;21.11;41.93
21730;BME280;11027;51.030;13.812;2023-05-12T09:56:15;100266.91;;;21.11;41.91
21730;BME280;11027;51.030;13.812;2023-05-12T09:58:42;100269.16;;;21.14;41.64
21730;BME280;11027;51.030;13.812;2023-05-12T10:01:11;100267.25;;;21.15;40.89
21730;BME280;11027;51.030;13.812;2023-05-12T10:03:36;100265.41;;;21.21;40.53
21730;BME280;11027;51.030;13.812;2023-05-12T10:06:05;100274.66;;;21.26;40.65
21730;BME280;11027;51.030;13.812;2023-05-12T10:08:43;100260.03;;;21.31;40.43
21730;BME280;11027;51.030;13.812;2023-05-12T10:11:10;100264.28;;;21.33;39.41
21730;BME280;11027;51.030;13.812;2023-05-12T10:13:37;100272.34;;;21.35;39.48
21730;BME280;11027;51.030;13.812;2023-05-12T10:16:02;100261.50;;;21.33;38.76
21730;BME280;11027;51.030;13.812;2023-05-12T10:18:30;100259.31;;;21.35;38.96
21730;BME280;11027;51.030;13.812;2023-05-12T10:20:57;100260.03;;;21.31;38.24
21730;BME280;11027;51.030;13.812;2023-05-12T10:23:24;100262.03;;;21.18;37.76
21730;BME280;11027;51.030;13.812;2023-05-12T10:25:49;100262.56;;;21.15;37.24
21730;BME280;11027;51.030;13.812;2023-05-12T10:28:15;100260.03;;;21.14;37.14
21730;BME280;11027;51.030;13.812;2023-05-12T10:30:41;100256.84;;;21.22;37.12
21730;BME280;11027;51.030;13.812;2023-05-12T10:33:07;100258.72;;;21.33;37.32
21730;BME280;11027;51.030;13.812;2023-05-12T10:35:34;100258.56;;;21.40;37.41
21730;BME280;11027;51.030;13.812;2023-05-12T10:38:11;100262.97;;;21.53;37.14
21730;BME280;11027;51.030;13.812;2023-05-12T10:40:59;100255.59;;;21.75;37.57
21730;BME280;11027;51.030;13.812;2023-05-12T10:43:26;100257.56;;;21.97;37.33
21730;BME280;11027;51.030;13.812;2023-05-12T10:46:05;100262.25;;;22.13;37.43
21730;BME280;11027;51.030;13.812;2023-05-12T10:48:31;100255.69;;;22.20;37.49
21730;BME280;11027;51.030;13.812;2023-05-12T10:50:56;100254.22;;;22.12;36.83
21730;BME280;11027;51.030;13.812;2023-05-12T10:53:32;100257.91;;;22.01;36.73
21730;BME280;11027;51.030;13.812;2023-05-12T10:56:02;100247.94;;;22.00;36.83
21730;BME280;11027;51.030;13.812;2023-05-12T10:58:28;100259.44;;;22.08;36.65
21730;BME280;11027;51.030;13.812;2023-05-12T11:00:53;100254.13;;;22.24;36.40
21730;BME280;11027;51.030;13.812;2023-05-12T11:03:23;100253.84;;;22.42;36.92
21730;BME280;11027;51.030;13.812;2023-05-12T11:05:59;100239.50;;;22.50;36.92
21730;BME280;11027;51.030;13.812;2023-05-12T11:08:25;100247.25;;;22.48;37.00
21730;BME280;11027;51.030;13.812;2023-05-12T11:10:50;100250.53;;;22.45;37.12
21730;BME280;11027;51.030;13.812;2023-05-12T11:13:15;100251.09;;;22.47;37.43
21730;BME280;11027;51.030;13.812;2023-05-12T11:15:43;100252.94;;;22.59;36.88
21730;BME280;11027;51.030;13.812;2023-05-12T11:18:08;100256.41;;;22.71;37.16
21730;BME280;11027;51.030;13.812;2023-05-12T11:20:34;100248.13;;;22.76;37.15
21730;BME280;11027;51.030;13.812;2023-05-12T11:22:59;100248.09;;;22.71;36.96
21730;BME280;11027;51.030;13.812;2023-05-12T11:25:25;100258.28;;;22.65;37.05
21730;BME280;11027;51.030;13.812;2023-05-12T11:27:51;100253.44;;;22.55;37.24
21730;BME280;11027;51.030;13.812;2023-05-12T11:30:16;100254.41;;;22.44;37.55
21730;BME280;11027;51.030;13.812;2023-05-12T11:32:42;100263.09;;;22.31;38.21
21730;BME280;11027;51.030;13.812;2023-05-12T11:35:09;100257.28;;;22.15;39.10
21730;BME280;11027;51.030;13.812;2023-05-12T11:37:36;100260.78;;;22.06;39.64
21730;BME280;11027;51.030;13.812;2023-05-12T11:40:10;100257.72;;;22.07;40.17
21730;BME280;11027;51.030;13.812;2023-05-12T11:42:35;100256.88;;;22.24;40.68
21730;BME280;11027;51.030;13.812;2023-05-12T11:45:04;100255.63;;;22.53;41.02
21730;BME280;11027;51.030;13.812;2023-05-12T11:47:30;100256.00;;;22.84;40.72
21730;BME280;11027;51.030;13.812;2023-05-12T11:49:55;100259.69;;;23.12;40.15
21730;BME280;11027;51.030;13.812;2023-05-12T11:52:23;100252.59;;;23.26;39.51
21730;BME280;11027;51.030;13.812;2023-05-12T11:54:56;100249.31;;;23.29;38.32
21730;BME280;11027;51.030;13.812;2023-05-12T11:57:25;100251.03;;;23.08;37.58
21730;BME280;11027;51.030;13.812;2023-05-12T12:00:10;100256.00;;;22.84;37.13
21730;BME280;11027;51.030;13.812;2023-05-12T12:02:36;100262.47;;;22.68;37.40
21730;BME280;11027;51.030;13.812;2023-05-12T12:05:03;100262.34;;;22.57;37.75
21730;BME280;11027;51.030;13.812;2023-05-12T12:07:30;100265.06;;;22.52;38.34
21730;BME280;11027;51.030;13.812;2023-05-12T12:09:55;100263.25;;;22.41;38.00
21730;BME280;11027;51.030;13.812;2023-05-12T12:12:21;100267.56;;;22.32;37.75
21730;BME280;11027;51.030;13.812;2023-05-12T12:14:46;100263.31;;;22.24;38.18
21730;BME280;11027;51.030;13.812;2023-05-12T12:17:12;100270.16;;;22.22;38.58
21730;BME280;11027;51.030;13.812;2023-05-12T12:19:37;100275.88;;;22.15;39.23
21730;BME280;11027;51.030;13.812;2023-05-12T12:22:02;100277.25;;;22.12;39.60
21730;BME280;11027;51.030;13.812;2023-05-12T12:24:27;100280.06;;;22.17;39.95
21730;BME280;11027;51.030;13.812;2023-05-12T12:26:53;100279.66;;;22.26;40.20
21730;BME280;11027;51.030;13.812;2023-05-12T12:29:18;100277.06;;;22.36;40.66
21730;BME280;11027;51.030;13.812;2023-05-12T12:31:43;100280.03;;;22.51;40.64
21730;BME280;11027;51.030;13.812;2023-05-12T12:34:09;100275.91;;;22.76;40.55
21730;BME280;11027;51.030;13.812;2023-05-12T12:36:34;100277.75;;;22.92;40.10
21730;BME280;11027;51.030;13.812;2023-05-12T12:39:00;100270.75;;;23.07;40.06